Time;durP1;ratioP1;P1;durP2;ratioP2;P2;SDS_P1;SDS_P2;PMS_P1;PMS_P2;Temp;Humidity;BMP_temperature;BMP_pressure;BME280_temperature;BME280_humidity;BME280_pressure;Samples;Min_cycle;Max_cycle;Signal;HPM_P1;HPM_P2
2020/12/25 00:01:10;;;;;;;4.70;2.80;;;6.20;99.90;;;;;;4981007;28;20533;-56
2020/12/25 00:03:37;;;;;;;5.00;2.90;;;6.20;99.90;;;;;;4981598;28;20457;-55
2020/12/25 00:06:03;;;;;;;9.57;2.87;;;6.20;99.90;;;;;;4981530;28;20446;-57
2020/12/25 00:08:30;;;;;;;5.97;3.00;;;6.20;99.90;;;;;;4980983;28;20529;-55
2020/12/25 00:10:57;;;;;;;3.00;2.27;;;6.20;99.90;;;;;;4986673;28;20534;-53
2020/12/25 00:13:23;;;;;;;3.90;3.30;;;6.30;99.90;;;;;;4974934;28;20475;-55
2020/12/25 00:15:50;;;;;;;6.83;3.40;;;6.30;99.90;;;;;;4966191;28;20486;-56
2020/12/25 00:18:16;;;;;;;4.70;2.13;;;6.30;99.90;;;;;;4963041;28;20492;-54
2020/12/25 00:20:43;;;;;;;5.03;2.77;;;6.30;99.90;;;;;;4980919;28;20947;-55
2020/12/25 00:23:09;;;;;;;6.70;3.30;;;6.20;99.90;;;;;;4981448;28;20772;-58
2020/12/25 00:25:37;;;;;;;3.40;2.70;;;6.10;99.90;;;;;;4981529;28;20536;-56
2020/12/25 00:28:05;;;;;;;3.30;2.30;;;6.10;99.90;;;;;;4980479;28;20845;-57
2020/12/25 00:30:31;;;;;;;8.13;2.97;;;6.20;99.90;;;;;;4980686;28;20597;-56
2020/12/25 00:32:57;;;;;;;6.50;2.57;;;6.10;99.90;;;;;;4980767;28;20514;-58
2020/12/25 00:35:24;;;;;;;4.03;2.63;;;6.10;99.90;;;;;;4981093;28;20561;-54
2020/12/25 00:37:50;;;;;;;3.93;2.87;;;6.10;99.90;;;;;;4985001;28;20471;-57
2020/12/25 00:40:16;;;;;;;4.70;2.87;;;6.10;99.90;;;;;;4983934;28;20458;-55
2020/12/25 00:42:43;;;;;;;3.87;2.37;;;6.10;99.90;;;;;;4984100;28;20541;-53
2020/12/25 00:45:10;;;;;;;3.70;2.13;;;6.10;99.90;;;;;;4983841;28;20939;-54
2020/12/25 00:47:37;;;;;;;5.10;3.23;;;6.20;99.90;;;;;;4983390;28;20478;-58
2020/12/25 00:50:03;;;;;;;21.57;11.13;;;6.10;99.90;;;;;;4984281;28;20518;-54
2020/12/25 00:52:30;;;;;;;5.27;2.70;;;6.10;99.90;;;;;;4983314;28;20485;-56
2020/12/25 00:54:56;;;;;;;4.53;2.10;;;6.10;99.90;;;;;;4981122;28;20510;-52
2020/12/25 00:57:22;;;;;;;4.43;2.30;;;6.00;99.90;;;;;;4983260;28;20597;-57
2020/12/25 00:59:49;;;;;;;4.23;2.10;;;6.00;99.90;;;;;;4982461;28;20851;-56
2020/12/25 01:02:16;;;;;;;6.30;2.70;;;6.00;99.90;;;;;;4980270;28;20486;-58
2020/12/25 01:04:43;;;;;;;2.80;2.13;;;6.00;99.90;;;;;;4979830;28;20498;-54
2020/12/25 01:07:10;;;;;;;3.83;2.17;;;6.00;99.90;;;;;;4980323;28;20447;-53
2020/12/25 01:09:36;;;;;;;3.27;1.63;;;6.00;99.90;;;;;;4980854;28;20466;-56
2020/12/25 01:12:03;;;;;;;3.50;2.47;;;6.00;99.90;;;;;;4979678;28;20502;-57
2020/12/25 01:14:31;;;;;;;4.73;2.40;;;6.00;99.90;;;;;;4979975;28;20987;-55
2020/12/25 01:16:58;;;;;;;5.03;2.70;;;6.00;99.90;;;;;;4979375;28;20474;-56
2020/12/25 01:19:26;;;;;;;2.73;2.20;;;6.00;99.90;;;;;;4979820;28;20537;-55
2020/12/25 01:21:53;;;;;;;3.63;1.83;;;6.00;99.90;;;;;;4979952;28;20510;-56
2020/12/25 01:24:19;;;;;;;4.63;2.40;;;6.10;99.90;;;;;;4979540;28;20482;-58
2020/12/25 01:26:47;;;;;;;5.97;2.63;;;6.10;99.90;;;;;;4980102;28;20471;-55
2020/12/25 01:29:13;;;;;;;3.40;1.80;;;6.10;99.90;;;;;;4973784;28;20532;-55
2020/12/25 01:31:39;;;;;;;4.07;2.40;;;6.10;99.90;;;;;;4983035;28;20497;-53
2020/12/25 01:34:06;;;;;;;5.10;2.13;;;6.00;99.90;;;;;;4997883;28;20461;-57
2020/12/25 01:36:33;;;;;;;3.20;2.23;;;6.00;99.90;;;;;;4999091;28;20592;-55
2020/12/25 01:38:59;;;;;;;2.70;2.00;;;6.00;99.90;;;;;;5001529;28;20453;-54
2020/12/25 01:41:26;;;;;;;6.40;2.10;;;6.00;99.90;;;;;;5003222;28;20545;-58
2020/12/25 01:43:52;;;;;;;3.73;2.23;;;5.90;99.90;;;;;;5002649;28;20458;-54
2020/12/25 01:46:21;;;;;;;16.90;8.47;;;5.90;99.90;;;;;;5002649;28;20484;-56
2020/12/25 01:48:48;;;;;;;6.73;2.80;;;6.00;99.90;;;;;;5001763;28;20532;-57
2020/12/25 01:51:16;;;;;;;5.07;2.63;;;6.00;99.90;;;;;;5000051;28;20532;-58
2020/12/25 01:53:44;;;;;;;6.07;2.10;;;6.00;99.90;;;;;;4999065;28;20488;-54
2020/12/25 01:56:12;;;;;;;2.17;1.70;;;6.00;99.90;;;;;;4998559;28;20524;-50
2020/12/25 01:58:41;;;;;;;5.60;4.17;;;6.00;99.90;;;;;;4999399;28;20538;-55
2020/12/25 02:01:07;;;;;;;4.10;2.03;;;5.90;99.90;;;;;;4976234;28;20566;-51
2020/12/25 02:03:34;;;;;;;2.00;1.47;;;5.90;99.90;;;;;;4974108;28;20482;-50
2020/12/25 02:06:00;;;;;;;2.00;1.80;;;5.90;99.90;;;;;;4979255;28;20554;-50
2020/12/25 02:08:27;;;;;;;2.70;1.53;;;5.90;99.90;;;;;;4979486;28;20534;-55
2020/12/25 02:10:54;;;;;;;7.13;1.50;;;5.90;99.90;;;;;;4978681;28;20538;-54
2020/12/25 02:13:21;;;;;;;5.30;1.60;;;5.90;99.90;;;;;;4979000;28;20550;-55
2020/12/25 02:15:48;;;;;;;2.20;1.40;;;5.90;99.90;;;;;;4978844;28;20466;-56
2020/12/25 02:18:14;;;;;;;1.43;1.23;;;5.90;99.90;;;;;;4977032;28;20960;-56
2020/12/25 02:20:40;;;;;;;1.43;1.30;;;5.80;99.90;;;;;;4959776;29;20890;-57
2020/12/25 02:23:08;;;;;;;2.60;1.13;;;5.80;99.90;;;;;;4959867;29;20458;-57
2020/12/25 02:25:34;;;;;;;1.73;1.30;;;5.80;99.90;;;;;;4959505;29;20459;-57
2020/12/25 02:28:00;;;;;;;1.90;1.40;;;5.80;99.90;;;;;;4963058;29;20455;-55
2020/12/25 02:30:27;;;;;;;2.47;1.10;;;5.80;99.90;;;;;;4962969;29;20515;-52
2020/12/25 02:32:53;;;;;;;1.60;1.30;;;5.70;99.90;;;;;;4962536;29;20563;-51
2020/12/25 02:35:19;;;;;;;2.77;1.90;;;5.70;99.90;;;;;;4963615;29;20559;-57
2020/12/25 02:37:46;;;;;;;1.70;1.20;;;5.70;99.90;;;;;;4962826;29;20513;-57
2020/12/25 02:40:13;;;;;;;1.33;0.93;;;5.70;99.90;;;;;;4962812;29;20447;-57
2020/12/25 02:42:40;;;;;;;4.27;2.00;;;5.60;99.90;;;;;;4963549;29;20512;-58
2020/12/25 02:45:06;;;;;;;4.13;0.87;;;5.60;99.90;;;;;;4963560;29;20480;-52
2020/12/25 02:47:33;;;;;;;0.90;0.70;;;5.60;99.90;;;;;;4963150;29;20503;-54
2020/12/25 02:50:00;;;;;;;1.70;1.10;;;5.60;99.90;;;;;;4969622;28;20474;-49
2020/12/25 02:52:26;;;;;;;1.53;0.90;;;5.60;99.90;;;;;;4984124;28;20515;-54
2020/12/25 02:54:53;;;;;;;1.37;0.80;;;5.50;99.90;;;;;;4985776;28;20443;-49
2020/12/25 02:57:20;;;;;;;2.47;0.93;;;5.40;99.90;;;;;;4986493;28;20490;-55
2020/12/25 02:59:47;;;;;;;12.70;4.43;;;5.40;99.90;;;;;;4986204;28;20474;-58
2020/12/25 03:02:15;;;;;;;3.97;0.90;;;5.50;99.90;;;;;;4986440;28;20514;-55
2020/12/25 03:04:41;;;;;;;3.90;1.63;;;5.50;99.90;;;;;;4987091;28;20564;-55
2020/12/25 03:07:07;;;;;;;1.00;0.70;;;5.50;99.90;;;;;;4987435;28;20585;-55
2020/12/25 03:09:34;;;;;;;1.40;0.90;;;5.40;99.90;;;;;;4983896;28;20509;-53
2020/12/25 03:12:00;;;;;;;4.60;1.10;;;5.40;99.90;;;;;;4982412;28;20457;-55
2020/12/25 03:14:27;;;;;;;2.73;0.80;;;5.40;99.90;;;;;;4983162;28;20474;-54
2020/12/25 03:16:54;;;;;;;1.27;0.90;;;5.50;99.90;;;;;;4982288;28;20862;-56
2020/12/25 03:19:20;;;;;;;3.10;1.10;;;5.50;99.90;;;;;;4982332;28;20463;-55
2020/12/25 03:21:46;;;;;;;2.10;1.70;;;5.50;99.90;;;;;;4981899;28;20513;-56
2020/12/25 03:24:13;;;;;;;2.17;1.00;;;5.50;99.90;;;;;;4982802;28;20529;-52
2020/12/25 03:26:39;;;;;;;1.17;0.90;;;5.50;99.90;;;;;;4982588;28;20466;-52
2020/12/25 03:29:05;;;;;;;1.47;0.80;;;5.50;99.90;;;;;;4982751;28;20549;-56
2020/12/25 03:31:33;;;;;;;3.00;0.90;;;5.50;99.90;;;;;;4982358;28;20470;-52
2020/12/25 03:33:59;;;;;;;1.10;0.67;;;5.50;99.90;;;;;;4982810;28;20538;-53
2020/12/25 03:36:25;;;;;;;1.30;0.80;;;5.50;99.90;;;;;;4982739;28;20549;-53
2020/12/25 03:38:52;;;;;;;1.30;0.80;;;5.50;99.90;;;;;;4982822;28;20482;-56
2020/12/25 03:41:18;;;;;;;1.67;0.90;;;5.40;99.90;;;;;;4981689;28;20574;-57
2020/12/25 03:43:45;;;;;;;2.40;1.07;;;5.40;99.90;;;;;;4982273;28;20506;-56
2020/12/25 03:46:11;;;;;;;2.90;1.23;;;5.40;99.90;;;;;;4982071;28;20508;-58
2020/12/25 03:48:39;;;;;;;1.20;0.80;;;5.40;99.90;;;;;;4982126;28;20450;-58
2020/12/25 03:51:05;;;;;;;2.80;0.90;;;5.40;99.90;;;;;;4981562;28;20431;-57
2020/12/25 03:53:32;;;;;;;1.20;0.97;;;5.40;99.90;;;;;;4981923;28;20514;-58
2020/12/25 03:55:58;;;;;;;1.20;0.90;;;5.40;99.90;;;;;;4969718;28;20534;-53
2020/12/25 03:58:24;;;;;;;1.20;0.80;;;5.40;99.90;;;;;;4962112;29;20460;-57
2020/12/25 04:00:51;;;;;;;1.10;0.80;;;5.40;99.90;;;;;;4998967;23;20967;-56
2020/12/25 04:03:17;;;;;;;1.67;0.77;;;5.40;99.90;;;;;;5007624;23;20584;-57
2020/12/25 04:05:44;;;;;;;1.63;0.80;;;5.40;99.90;;;;;;5000892;28;20486;-56
2020/12/25 04:08:11;;;;;;;1.30;0.80;;;5.40;99.90;;;;;;5000566;28;20531;-55
2020/12/25 04:10:37;;;;;;;2.13;0.90;;;5.50;99.90;;;;;;5001427;28;20946;-57
2020/12/25 04:13:05;;;;;;;1.30;0.73;;;5.40;99.90;;;;;;5000938;28;20505;-58
2020/12/25 04:15:32;;;;;;;1.30;0.90;;;5.40;99.90;;;;;;5000679;28;20450;-58
2020/12/25 04:17:58;;;;;;;2.80;1.20;;;5.40;99.90;;;;;;5000596;28;20508;-57
2020/12/25 04:20:24;;;;;;;0.90;0.70;;;5.40;99.90;;;;;;5000504;28;20522;-55
2020/12/25 04:22:52;;;;;;;1.43;0.87;;;5.40;99.90;;;;;;5000833;28;20520;-56
2020/12/25 04:25:18;;;;;;;1.03;0.90;;;5.40;99.90;;;;;;5000640;28;20621;-54
2020/12/25 04:27:44;;;;;;;1.97;1.20;;;5.40;99.90;;;;;;5000466;28;20796;-57
2020/12/25 04:30:11;;;;;;;1.37;0.90;;;5.40;99.90;;;;;;5000671;28;20810;-57
2020/12/25 04:32:37;;;;;;;1.00;0.70;;;5.40;99.90;;;;;;5000436;28;20522;-58
2020/12/25 04:35:04;;;;;;;2.20;0.80;;;5.40;99.90;;;;;;5000975;28;20513;-58
2020/12/25 04:37:30;;;;;;;1.10;0.80;;;5.40;99.90;;;;;;5000483;28;20537;-55
2020/12/25 04:39:59;;;;;;;2.20;1.20;;;5.40;99.90;;;;;;5000382;28;20985;-52
2020/12/25 04:42:26;;;;;;;2.33;1.10;;;5.40;99.90;;;;;;4999681;28;20488;-56
2020/12/25 04:44:52;;;;;;;1.90;1.13;;;5.40;99.90;;;;;;5000122;28;20445;-51
2020/12/25 04:47:19;;;;;;;2.90;1.10;;;5.40;99.90;;;;;;5000149;28;20541;-57
2020/12/25 04:49:45;;;;;;;3.77;0.80;;;5.40;99.90;;;;;;4999907;28;20501;-57
2020/12/25 04:52:11;;;;;;;1.73;0.80;;;5.40;99.90;;;;;;5000111;28;20473;-52
2020/12/25 04:54:38;;;;;;;1.10;0.80;;;5.40;99.90;;;;;;5000169;28;20452;-56
2020/12/25 04:57:05;;;;;;;1.97;0.87;;;5.50;99.90;;;;;;4999720;28;20828;-55
2020/12/25 04:59:32;;;;;;;1.33;1.13;;;5.40;99.90;;;;;;5000532;28;20450;-52
2020/12/25 05:02:01;;;;;;;1.87;1.40;;;5.40;99.90;;;;;;5000019;28;20525;-54
2020/12/25 05:04:27;;;;;;;1.73;0.90;;;5.20;99.90;;;;;;5000617;28;20934;-54
2020/12/25 05:06:54;;;;;;;2.63;1.83;;;5.20;99.90;;;;;;5000638;28;20469;-51
2020/12/25 05:09:22;;;;;;;6.20;1.40;;;5.10;99.90;;;;;;5001327;28;20446;-57
2020/12/25 05:11:52;;;;;;;1.10;0.90;;;5.10;99.90;;;;;;5000222;28;20449;-52
2020/12/25 05:14:23;;;;;;;1.33;0.90;;;5.00;99.90;;;;;;5000045;28;21003;-52
2020/12/25 05:16:54;;;;;;;7.03;1.10;;;5.00;99.90;;;;;;5000175;28;20434;-54
2020/12/25 05:19:24;;;;;;;2.20;0.80;;;4.90;99.90;;;;;;4998428;28;20446;-71
2020/12/25 05:21:52;;;;;;;3.00;1.77;;;4.90;99.90;;;;;;4978615;28;20994;-73
2020/12/25 05:24:19;;;;;;;1.40;1.20;;;4.80;99.90;;;;;;4979008;28;20499;-72
2020/12/25 05:26:51;;;;;;;1.43;1.00;;;4.80;99.90;;;;;;4978970;28;20534;-72
2020/12/25 05:29:20;;;;;;;1.77;1.27;;;4.80;99.90;;;;;;4979964;28;20763;-73
2020/12/25 05:31:48;;;;;;;2.53;1.30;;;4.80;99.90;;;;;;4980984;28;20916;-73
2020/12/25 05:34:15;;;;;;;2.37;1.77;;;4.90;99.90;;;;;;4978421;28;20467;-72
2020/12/25 05:36:49;;;;;;;1.90;1.00;;;4.90;99.90;;;;;;4978733;28;20867;-72
2020/12/25 05:39:25;;;;;;;0.90;0.70;;;4.90;99.90;;;;;;4979003;28;20513;-72
2020/12/25 05:41:55;;;;;;;0.90;0.70;;;4.90;99.90;;;;;;4978573;28;20486;-73
2020/12/25 05:44:23;;;;;;;1.10;0.80;;;4.90;99.90;;;;;;4978533;28;20431;-73
2020/12/25 05:46:50;;;;;;;3.70;1.00;;;5.00;99.90;;;;;;4979444;28;20538;-73
2020/12/25 05:49:16;;;;;;;1.07;0.83;;;5.00;99.90;;;;;;4978609;28;20537;-73
2020/12/25 05:51:49;;;;;;;1.40;0.80;;;5.00;99.90;;;;;;4978489;28;20479;-73
2020/12/25 05:54:21;;;;;;;1.40;0.80;;;5.00;99.90;;;;;;4978236;28;20971;-71
2020/12/25 05:56:52;;;;;;;1.60;1.20;;;5.10;99.90;;;;;;4997097;28;20540;-73
2020/12/25 05:59:24;;;;;;;3.23;1.10;;;5.10;99.90;;;;;;4997727;28;20478;-73
2020/12/25 06:01:54;;;;;;;1.43;0.80;;;5.10;99.90;;;;;;4997362;28;20501;-73
2020/12/25 06:04:25;;;;;;;1.10;0.60;;;5.10;99.90;;;;;;4997431;28;20462;-73
2020/12/25 06:06:52;;;;;;;2.50;0.73;;;5.10;99.90;;;;;;4997346;28;20518;-74
2020/12/25 06:09:19;;;;;;;2.63;0.93;;;5.10;99.90;;;;;;4997338;28;20540;-72
2020/12/25 06:11:49;;;;;;;1.90;1.00;;;5.10;99.90;;;;;;4997259;28;20537;-73
2020/12/25 06:14:16;;;;;;;1.13;0.90;;;5.10;99.90;;;;;;4997284;28;20552;-72
2020/12/25 06:16:53;;;;;;;1.10;0.70;;;5.10;99.90;;;;;;4997230;28;20456;-72
2020/12/25 06:19:35;;;;;;;1.30;1.00;;;5.10;99.90;;;;;;4997466;28;20853;-72
2020/12/25 06:22:05;;;;;;;1.00;0.70;;;4.90;99.90;;;;;;5000458;28;20485;-73
2020/12/25 06:24:35;;;;;;;3.00;1.10;;;4.90;99.90;;;;;;4999236;28;20478;-72
2020/12/25 06:27:04;;;;;;;2.17;1.10;;;4.80;99.90;;;;;;4998814;28;20529;-73
2020/12/25 06:29:30;;;;;;;3.00;1.07;;;4.80;99.90;;;;;;4998870;28;20473;-72
2020/12/25 06:31:59;;;;;;;2.30;1.47;;;4.80;99.90;;;;;;4999622;28;20488;-72
2020/12/25 06:34:42;;;;;;;1.67;1.13;;;4.70;99.90;;;;;;4999060;28;20532;-71
2020/12/25 06:37:11;;;;;;;4.13;1.50;;;4.70;99.90;;;;;;4999764;28;20521;-72
2020/12/25 06:39:38;;;;;;;1.90;1.50;;;4.70;99.90;;;;;;4999207;28;20468;-71
2020/12/25 06:42:04;;;;;;;2.53;1.70;;;4.70;99.90;;;;;;4999004;28;20485;-71
2020/12/25 06:44:34;;;;;;;3.07;2.00;;;4.70;99.90;;;;;;4999263;28;20445;-72
2020/12/25 06:47:03;;;;;;;3.27;1.63;;;4.80;99.90;;;;;;4999018;28;20446;-71
2020/12/25 06:49:35;;;;;;;1.93;1.30;;;4.70;99.90;;;;;;5002448;28;20769;-72
2020/12/25 06:52:02;;;;;;;1.77;1.40;;;4.60;99.90;;;;;;4999185;28;20792;-72
2020/12/25 06:54:39;;;;;;;1.67;1.40;;;4.70;99.90;;;;;;4998206;28;20449;-72
2020/12/25 06:57:10;;;;;;;5.40;2.30;;;4.60;99.90;;;;;;4979300;28;20761;-72
2020/12/25 06:59:40;;;;;;;4.20;1.50;;;4.60;99.90;;;;;;4978930;28;20519;-72
2020/12/25 07:02:11;;;;;;;2.03;1.00;;;4.60;99.90;;;;;;4978907;28;21002;-72
2020/12/25 07:04:37;;;;;;;2.10;1.43;;;4.70;99.90;;;;;;4979348;28;20478;-72
2020/12/25 07:07:06;;;;;;;1.67;1.20;;;4.60;99.90;;;;;;4979027;28;20454;-72
2020/12/25 07:09:37;;;;;;;4.60;1.50;;;4.60;99.90;;;;;;4979648;28;20447;-73
2020/12/25 07:12:08;;;;;;;1.70;1.40;;;4.70;99.90;;;;;;4979256;28;20550;-72
2020/12/25 07:14:35;;;;;;;3.60;1.90;;;4.60;99.90;;;;;;4980266;28;20442;-72
2020/12/25 07:17:10;;;;;;;3.10;1.37;;;4.50;99.90;;;;;;4980926;28;20451;-73
2020/12/25 07:19:37;;;;;;;3.20;1.70;;;4.50;99.90;;;;;;4980227;28;20526;-73
2020/12/25 07:22:05;;;;;;;7.97;1.90;;;4.50;99.90;;;;;;4980182;28;20967;-72
2020/12/25 07:24:32;;;;;;;1.60;1.13;;;4.60;99.90;;;;;;4979297;28;20865;-72
2020/12/25 07:26:59;;;;;;;1.97;1.53;;;4.60;99.90;;;;;;4979417;28;20945;-72
2020/12/25 07:29:25;;;;;;;2.30;1.73;;;4.60;99.90;;;;;;4979641;28;20542;-72
2020/12/25 07:31:53;;;;;;;2.10;1.33;;;4.60;99.90;;;;;;4999582;28;21039;-72
2020/12/25 07:34:22;;;;;;;3.47;1.53;;;4.60;99.90;;;;;;4999232;28;20450;-71
2020/12/25 07:36:58;;;;;;;1.53;1.40;;;4.60;99.90;;;;;;4998370;28;20473;-72
2020/12/25 07:39:26;;;;;;;1.40;1.23;;;4.50;99.90;;;;;;5003733;28;20453;-73
2020/12/25 07:41:52;;;;;;;1.20;1.00;;;4.50;99.90;;;;;;5003498;28;20580;-73
2020/12/25 07:44:19;;;;;;;3.47;1.30;;;4.50;99.90;;;;;;5003719;28;20500;-72
2020/12/25 07:46:46;;;;;;;2.13;1.20;;;4.50;99.90;;;;;;5002458;28;20529;-72
2020/12/25 07:49:13;;;;;;;1.77;1.23;;;4.60;99.90;;;;;;5002022;28;20499;-72
2020/12/25 07:51:40;;;;;;;1.80;1.27;;;4.60;99.90;;;;;;5002808;28;20537;-73
2020/12/25 07:54:07;;;;;;;1.43;1.07;;;4.60;99.90;;;;;;5001141;28;20749;-72
2020/12/25 07:56:35;;;;;;;2.00;0.80;;;4.60;99.90;;;;;;5000302;28;20450;-72
2020/12/25 07:59:03;;;;;;;3.30;1.33;;;4.60;99.90;;;;;;5000377;28;20481;-72
2020/12/25 08:01:31;;;;;;;1.57;1.40;;;4.60;99.90;;;;;;4999884;28;20550;-68
2020/12/25 08:03:58;;;;;;;3.83;1.60;;;4.60;99.90;;;;;;5000119;28;20537;-73
2020/12/25 08:06:26;;;;;;;5.53;1.53;;;4.60;99.90;;;;;;5000135;28;20561;-73
2020/12/25 08:08:57;;;;;;;1.50;1.33;;;4.70;99.90;;;;;;5002149;28;20548;-73
2020/12/25 08:11:26;;;;;;;1.90;1.00;;;4.60;99.90;;;;;;5000959;28;20473;-73
2020/12/25 08:14:00;;;;;;;3.27;1.00;;;4.70;99.90;;;;;;5000653;28;20533;-72
2020/12/25 08:16:27;;;;;;;2.00;1.30;;;4.70;99.90;;;;;;4999810;28;20449;-72
2020/12/25 08:18:54;;;;;;;1.20;1.00;;;4.70;99.90;;;;;;4999572;28;20579;-72
2020/12/25 08:21:20;;;;;;;2.40;1.27;;;4.70;99.90;;;;;;4999047;28;20974;-73
2020/12/25 08:23:47;;;;;;;1.33;0.90;;;4.70;99.90;;;;;;4999476;28;20600;-73
2020/12/25 08:26:14;;;;;;;2.77;1.07;;;4.70;99.90;;;;;;4999520;28;20468;-73
2020/12/25 08:28:42;;;;;;;1.27;1.07;;;4.70;99.90;;;;;;4999367;28;20772;-71
2020/12/25 08:31:16;;;;;;;1.10;0.90;;;4.70;99.90;;;;;;4999654;28;20807;-71
2020/12/25 08:33:52;;;;;;;1.00;0.70;;;4.70;99.90;;;;;;5000949;28;20544;-72
2020/12/25 08:36:21;;;;;;;1.40;0.90;;;4.70;99.90;;;;;;5002841;28;20819;-73
2020/12/25 08:38:48;;;;;;;3.00;1.03;;;4.70;99.90;;;;;;5000360;28;20450;-72
2020/12/25 08:41:16;;;;;;;1.00;0.70;;;4.60;99.90;;;;;;5000219;28;20560;-73
2020/12/25 08:43:42;;;;;;;1.30;1.00;;;4.70;99.90;;;;;;5000077;28;20505;-70
2020/12/25 08:46:09;;;;;;;2.47;1.20;;;4.70;99.90;;;;;;5001073;28;20450;-70
2020/12/25 08:48:48;;;;;;;1.97;0.97;;;4.70;99.90;;;;;;4998164;28;20506;-70
2020/12/25 08:51:16;;;;;;;1.23;0.80;;;4.70;99.90;;;;;;5004091;28;20461;-72
2020/12/25 08:53:50;;;;;;;2.03;1.00;;;4.70;99.90;;;;;;5001638;28;20533;-70
2020/12/25 08:56:19;;;;;;;1.40;0.93;;;4.70;99.90;;;;;;4986907;28;20443;-70
2020/12/25 08:58:55;;;;;;;1.27;0.70;;;4.70;99.90;;;;;;4983428;28;20490;-71
2020/12/25 09:01:22;;;;;;;1.33;0.83;;;4.70;99.90;;;;;;4980517;28;20515;-69
2020/12/25 09:03:49;;;;;;;4.30;0.97;;;4.70;99.90;;;;;;4979429;28;20554;-70
2020/12/25 09:06:15;;;;;;;3.43;0.83;;;4.70;99.90;;;;;;4982057;28;20494;-69
2020/12/25 09:08:42;;;;;;;2.70;1.03;;;4.70;99.90;;;;;;4983316;28;20847;-70
2020/12/25 09:11:09;;;;;;;2.43;1.47;;;4.70;99.90;;;;;;5001277;28;20442;-70
2020/12/25 09:13:36;;;;;;;4.60;1.40;;;4.70;99.90;;;;;;5000999;28;20525;-71
2020/12/25 09:16:05;;;;;;;2.07;1.10;;;4.80;99.90;;;;;;5001679;28;20504;-71
2020/12/25 09:18:31;;;;;;;1.30;1.00;;;4.80;99.90;;;;;;4999929;28;20465;-70
2020/12/25 09:20:58;;;;;;;1.20;0.90;;;4.90;99.90;;;;;;4999749;28;20485;-70
2020/12/25 09:23:24;;;;;;;2.07;1.00;;;4.90;99.90;;;;;;4999864;28;20533;-70
2020/12/25 09:25:50;;;;;;;3.90;0.83;;;5.00;99.90;;;;;;5000010;28;20529;-71
2020/12/25 09:28:17;;;;;;;1.17;0.90;;;5.00;99.90;;;;;;4999967;28;20477;-70
2020/12/25 09:30:44;;;;;;;3.63;0.97;;;5.10;99.90;;;;;;4999983;28;20513;-71
2020/12/25 09:33:10;;;;;;;2.17;1.57;;;5.00;99.90;;;;;;4999675;28;20434;-71
2020/12/25 09:35:37;;;;;;;3.10;2.23;;;5.00;99.90;;;;;;5000355;28;20537;-72
2020/12/25 09:38:03;;;;;;;3.70;1.33;;;5.00;99.90;;;;;;4980402;28;20447;-72
2020/12/25 09:40:30;;;;;;;1.50;1.10;;;5.10;99.90;;;;;;4980028;28;20559;-71
2020/12/25 09:42:56;;;;;;;1.67;1.23;;;5.10;99.90;;;;;;4997922;28;20478;-70
2020/12/25 09:45:23;;;;;;;2.47;1.57;;;5.20;99.90;;;;;;5000040;28;20514;-71
2020/12/25 09:47:51;;;;;;;2.80;1.37;;;5.20;99.90;;;;;;4999587;28;20522;-71
2020/12/25 09:50:17;;;;;;;1.70;0.90;;;5.30;99.90;;;;;;4993895;28;20979;-73
2020/12/25 09:52:43;;;;;;;4.30;1.20;;;5.30;99.90;;;;;;4995765;28;20449;-72
2020/12/25 09:55:15;;;;;;;2.50;1.20;;;5.30;99.90;;;;;;4999487;28;20541;-72
2020/12/25 09:57:42;;;;;;;1.40;1.03;;;5.20;99.90;;;;;;4999200;28;20454;-71
2020/12/25 10:00:10;;;;;;;2.03;1.00;;;5.20;99.90;;;;;;4998650;28;20852;-71
2020/12/25 10:02:37;;;;;;;1.60;0.90;;;5.20;99.90;;;;;;4997333;28;20625;-72
2020/12/25 10:05:06;;;;;;;2.60;1.10;;;5.20;99.90;;;;;;4997002;28;20545;-71
2020/12/25 10:07:32;;;;;;;1.70;0.97;;;5.20;99.90;;;;;;4997468;28;20501;-70
2020/12/25 10:09:58;;;;;;;2.30;1.50;;;5.20;99.90;;;;;;4998917;28;20523;-73
2020/12/25 10:12:25;;;;;;;3.60;2.90;;;5.20;99.90;;;;;;5004762;28;20482;-72
2020/12/25 10:14:52;;;;;;;4.50;2.80;;;5.20;99.90;;;;;;5000735;28;20449;-72
2020/12/25 10:17:18;;;;;;;2.80;1.50;;;5.20;99.90;;;;;;4999323;28;20549;-73
2020/12/25 10:19:45;;;;;;;2.30;1.20;;;5.10;99.90;;;;;;4998388;28;20528;-74
2020/12/25 10:22:13;;;;;;;3.13;1.00;;;5.10;99.90;;;;;;4998074;28;20533;-73
2020/12/25 10:24:41;;;;;;;2.03;1.60;;;5.10;99.90;;;;;;4999423;28;20522;-73
2020/12/25 10:27:07;;;;;;;7.00;1.27;;;5.10;99.90;;;;;;4998837;28;20454;-73
2020/12/25 10:29:34;;;;;;;1.97;0.90;;;5.10;99.90;;;;;;4999451;28;20478;-74
2020/12/25 10:32:00;;;;;;;2.97;1.50;;;5.10;99.90;;;;;;4998431;28;20453;-73
2020/12/25 10:34:29;;;;;;;2.13;1.20;;;5.10;99.90;;;;;;4998310;28;20473;-72
2020/12/25 10:36:55;;;;;;;1.97;1.20;;;5.20;99.90;;;;;;4998588;28;20540;-73
2020/12/25 10:39:22;;;;;;;4.13;1.13;;;5.10;99.90;;;;;;4998319;28;20521;-73
2020/12/25 10:41:49;;;;;;;1.50;1.20;;;5.20;99.90;;;;;;4998517;28;20577;-72
2020/12/25 10:44:15;;;;;;;1.30;0.97;;;5.20;99.90;;;;;;4997792;28;21006;-73
2020/12/25 10:46:42;;;;;;;7.53;1.30;;;5.30;99.90;;;;;;4998125;28;20462;-74
2020/12/25 10:49:08;;;;;;;2.03;1.00;;;5.30;99.90;;;;;;4994536;28;20548;-73
2020/12/25 10:51:34;;;;;;;6.40;1.60;;;5.30;99.90;;;;;;4997600;28;20517;-73
2020/12/25 10:54:01;;;;;;;3.20;1.30;;;5.30;99.90;;;;;;4998273;28;20991;-72
2020/12/25 10:56:30;;;;;;;3.53;1.03;;;5.30;99.90;;;;;;4999752;28;20835;-73
2020/12/25 10:58:56;;;;;;;2.17;1.00;;;5.30;99.90;;;;;;4997892;28;20454;-73
2020/12/25 11:01:24;;;;;;;1.60;1.23;;;5.30;99.90;;;;;;4997389;28;20536;-72
2020/12/25 11:03:50;;;;;;;1.30;0.97;;;5.40;99.90;;;;;;4997638;28;20474;-73
2020/12/25 11:06:17;;;;;;;2.60;1.10;;;5.40;99.90;;;;;;4998015;28;21024;-73
2020/12/25 11:08:47;;;;;;;1.43;1.00;;;5.40;99.90;;;;;;4980938;28;20460;-74
2020/12/25 11:11:13;;;;;;;1.10;0.90;;;5.40;99.90;;;;;;4982298;28;20466;-71
2020/12/25 11:13:42;;;;;;;1.33;1.20;;;5.30;99.90;;;;;;5004496;28;20453;-71
2020/12/25 11:16:08;;;;;;;1.80;1.30;;;5.30;99.90;;;;;;5001527;28;20454;-71
2020/12/25 11:18:34;;;;;;;1.40;1.17;;;5.30;99.90;;;;;;5001921;28;20561;-71
2020/12/25 11:21:01;;;;;;;1.20;0.80;;;5.30;99.90;;;;;;5002012;28;20553;-72
2020/12/25 11:23:27;;;;;;;1.80;1.03;;;5.40;99.90;;;;;;5002940;28;20477;-72
2020/12/25 11:25:54;;;;;;;1.70;1.40;;;5.30;99.90;;;;;;5001955;28;20942;-72
2020/12/25 11:28:20;;;;;;;2.80;1.17;;;5.20;99.90;;;;;;5006989;28;20517;-71
2020/12/25 11:30:47;;;;;;;1.87;1.10;;;5.20;99.90;;;;;;5006843;28;20521;-72
2020/12/25 11:33:14;;;;;;;2.20;1.37;;;5.20;99.90;;;;;;5006342;28;20494;-72
2020/12/25 11:35:40;;;;;;;2.27;1.37;;;5.20;99.90;;;;;;5005701;28;20865;-71
2020/12/25 11:38:06;;;;;;;1.63;1.00;;;5.20;99.90;;;;;;5005883;28;20446;-71
2020/12/25 11:40:33;;;;;;;1.60;1.13;;;5.20;99.90;;;;;;5006051;28;20520;-71
2020/12/25 11:42:59;;;;;;;7.10;1.50;;;5.10;99.90;;;;;;5007211;28;20509;-72
2020/12/25 11:45:25;;;;;;;8.83;1.97;;;5.10;99.90;;;;;;5007349;28;20446;-72
2020/12/25 11:47:53;;;;;;;2.43;1.33;;;5.20;99.90;;;;;;5006650;28;20852;-72
2020/12/25 11:50:19;;;;;;;1.60;1.03;;;5.20;99.90;;;;;;5007600;28;20919;-72
2020/12/25 11:52:45;;;;;;;2.00;1.40;;;5.20;99.90;;;;;;5007122;28;20466;-71
2020/12/25 11:55:12;;;;;;;3.20;1.43;;;5.20;99.90;;;;;;5003942;28;20450;-74
2020/12/25 11:57:38;;;;;;;3.43;1.20;;;5.20;99.90;;;;;;5007800;28;20456;-67
2020/12/25 12:00:06;;;;;;;2.03;1.40;;;5.20;99.90;;;;;;5003767;28;20458;-68
2020/12/25 12:02:33;;;;;;;2.07;1.00;;;5.10;99.90;;;;;;5016781;28;20489;-68
2020/12/25 12:05:00;;;;;;;1.93;1.10;;;5.10;99.90;;;;;;5019920;28;20455;-68
2020/12/25 12:07:27;;;;;;;1.63;1.43;;;5.10;99.90;;;;;;5007956;28;20536;-69
2020/12/25 12:09:53;;;;;;;2.60;1.20;;;5.10;99.90;;;;;;5010942;28;20837;-68
2020/12/25 12:12:19;;;;;;;4.37;1.53;;;5.10;99.90;;;;;;5012690;28;20434;-68
2020/12/25 12:14:48;;;;;;;2.47;1.10;;;5.10;99.90;;;;;;5015338;28;20438;-67
2020/12/25 12:17:14;;;;;;;1.67;1.20;;;5.10;99.90;;;;;;5017589;28;20469;-68
2020/12/25 12:19:40;;;;;;;1.40;1.00;;;5.00;99.90;;;;;;5015876;28;20469;-69
2020/12/25 12:22:08;;;;;;;1.97;1.33;;;4.90;99.90;;;;;;5012113;28;20506;-68
2020/12/25 12:24:34;;;;;;;1.50;1.10;;;4.80;99.90;;;;;;5009444;28;21519;-68
2020/12/25 12:27:00;;;;;;;2.70;1.60;;;4.80;99.90;;;;;;5327919;22;20631;-64
2020/12/25 12:29:27;;;;;;;5.53;1.27;;;4.80;99.90;;;;;;5009972;28;20448;-67
2020/12/25 12:31:53;;;;;;;4.63;2.20;;;4.80;99.90;;;;;;5012422;28;20453;-64
2020/12/25 12:34:19;;;;;;;3.27;1.30;;;4.80;99.90;;;;;;5015752;28;20942;-64
2020/12/25 12:36:46;;;;;;;1.80;1.23;;;4.80;99.90;;;;;;5017414;28;20537;-65
2020/12/25 12:39:13;;;;;;;1.40;0.90;;;4.80;99.90;;;;;;5010947;28;20457;-65
2020/12/25 12:41:40;;;;;;;2.43;1.40;;;4.80;99.90;;;;;;5020445;28;20519;-67
2020/12/25 12:44:06;;;;;;;2.20;1.10;;;4.90;99.90;;;;;;5005208;28;20446;-64
2020/12/25 12:46:35;;;;;;;1.83;1.30;;;5.00;99.90;;;;;;5008691;28;20465;-65
2020/12/25 12:49:01;;;;;;;2.00;1.00;;;5.00;99.90;;;;;;5015922;28;20471;-67
2020/12/25 12:51:28;;;;;;;3.20;1.37;;;5.00;99.90;;;;;;5010680;28;20521;-66
2020/12/25 12:53:54;;;;;;;2.43;1.30;;;5.10;99.90;;;;;;5012723;28;20515;-69
2020/12/25 12:56:24;;;;;;;1.67;1.13;;;5.10;99.90;;;;;;5007363;28;20443;-68
2020/12/25 12:58:52;;;;;;;1.83;1.10;;;5.10;99.90;;;;;;5022744;28;20845;-68